Time;durP1;ratioP1;P1;durP2;ratioP2;P2;SDS_P1;SDS_P2;PMS_P1;PMS_P2;Temp;Humidity;BMP_temperature;BMP_pressure;BME280_temperature;BME280_humidity;BME280_pressure;Samples;Min_cycle;Max_cycle;Signal;HPM_P1;HPM_P2
2024/01/25 00:00:45;;;;;;;9.50;8.50;;;;;;;19.89;40.61;101963.56;5032677;28;20056;-55
2024/01/25 00:03:12;;;;;;;10.15;8.13;;;;;;;19.87;40.65;101955.63;5030701;28;20061;-56
2024/01/25 00:05:40;;;;;;;10.75;8.63;;;;;;;19.86;40.59;101953.06;5030767;28;20476;-57
2024/01/25 00:08:08;;;;;;;8.98;8.05;;;;;;;19.85;40.43;101954.00;5032734;28;20060;-57
2024/01/25 00:10:35;;;;;;;12.02;9.07;;;;;;;19.84;40.27;101974.63;5030526;28;20052;-58
2024/01/25 00:13:02;;;;;;;10.93;9.07;;;;;;;19.83;40.35;101967.56;5030293;28;20049;-57
2024/01/25 00:15:30;;;;;;;9.88;8.00;;;;;;;19.82;40.34;101949.72;5032693;28;20041;-55
2024/01/25 00:17:58;;;;;;;9.20;8.25;;;;;;;19.83;40.30;101961.31;5031291;28;20105;-56
2024/01/25 00:20:25;;;;;;;9.80;8.32;;;;;;;19.82;40.01;101964.97;5032751;28;20049;-56
2024/01/25 00:22:52;;;;;;;10.45;8.18;;;;;;;19.80;40.02;101957.00;5015577;28;20053;-56
2024/01/25 00:25:20;;;;;;;9.70;8.70;;;;;;;19.80;40.10;101950.78;5018925;28;20056;-56
2024/01/25 00:27:47;;;;;;;8.77;7.78;;;;;;;19.78;39.90;101958.97;5022160;28;20034;-56
2024/01/25 00:30:15;;;;;;;9.38;8.45;;;;;;;19.78;39.87;101956.28;5027192;28;20411;-57
2024/01/25 00:32:42;;;;;;;10.35;8.82;;;;;;;19.77;39.97;101941.13;5027324;28;20060;-57
2024/01/25 00:35:13;;;;;;;9.07;7.75;;;;;;;19.76;39.92;101953.66;5017229;28;20057;-56
2024/01/25 00:37:41;;;;;;;9.30;7.35;;;;;;;19.75;40.00;101959.16;5029806;28;20042;-59
2024/01/25 00:40:09;;;;;;;10.25;8.20;;;;;;;19.74;39.59;101961.00;5029384;28;20052;-59
2024/01/25 00:42:45;;;;;;;9.43;8.43;;;;;;;19.74;39.75;101962.81;5016406;28;20056;-59
2024/01/25 00:45:13;;;;;;;10.38;8.25;;;;;;;19.73;39.86;101951.22;5029602;28;20049;-59
2024/01/25 00:47:40;;;;;;;9.98;8.75;;;;;;;19.72;39.89;101949.47;5030202;28;20071;-57
2024/01/25 00:50:08;;;;;;;9.45;7.78;;;;;;;19.72;39.79;101959.38;5029357;28;20396;-56
2024/01/25 00:52:36;;;;;;;9.00;8.10;;;;;;;19.70;39.88;101959.50;5026329;28;20042;-56
2024/01/25 00:55:04;;;;;;;11.38;8.65;;;;;;;19.70;39.68;101962.19;5030005;28;20514;-56
2024/01/25 00:57:31;;;;;;;9.63;8.05;;;;;;;19.69;39.75;101965.84;5029550;28;20510;-56
2024/01/25 01:00:00;;;;;;;9.05;8.07;;;;;;;19.69;39.69;101951.56;5029029;28;20045;-57
2024/01/25 01:02:31;;;;;;;9.30;7.95;;;;;;;19.68;39.64;101947.13;5026733;28;20046;-56
2024/01/25 01:04:58;;;;;;;10.48;8.32;;;;;;;19.66;39.73;101954.44;5023146;28;20054;-57
2024/01/25 01:07:27;;;;;;;9.30;8.05;;;;;;;19.66;39.84;101949.94;5023226;28;20042;-58
2024/01/25 01:09:54;;;;;;;9.40;8.43;;;;;;;19.66;39.79;101952.63;5028278;28;20052;-59
2024/01/25 01:12:21;;;;;;;9.90;8.43;;;;;;;19.67;39.62;101950.78;5028039;28;20053;-59
2024/01/25 01:14:49;;;;;;;9.68;8.15;;;;;;;19.65;39.81;101950.03;5029338;28;20049;-59
2024/01/25 01:17:18;;;;;;;10.18;8.32;;;;;;;19.64;39.65;101945.63;5029355;28;20045;-58
2024/01/25 01:19:45;;;;;;;9.27;7.53;;;;;;;19.63;39.69;101952.81;5029190;28;20057;-59
2024/01/25 01:22:13;;;;;;;9.98;8.65;;;;;;;19.62;39.71;101945.72;5029322;28;20061;-59
2024/01/25 01:24:40;;;;;;;7.90;7.07;;;;;;;19.62;39.77;101959.16;5014419;28;20373;-59
2024/01/25 01:27:07;;;;;;;9.93;8.85;;;;;;;19.62;39.64;101959.16;5027077;28;20446;-57
2024/01/25 01:29:35;;;;;;;9.13;8.10;;;;;;;19.61;39.59;101949.41;5034345;28;20050;-56
2024/01/25 01:32:02;;;;;;;10.20;8.05;;;;;;;19.61;39.56;101957.44;5034687;28;20056;-56
2024/01/25 01:34:30;;;;;;;9.63;8.00;;;;;;;19.62;39.59;101950.25;5032910;28;20484;-59
2024/01/25 01:36:57;;;;;;;10.10;8.80;;;;;;;19.60;39.54;101958.38;5036308;28;20061;-58
2024/01/25 01:39:26;;;;;;;10.10;9.00;;;;;;;19.61;39.69;101957.44;5032710;28;20046;-56
2024/01/25 01:41:53;;;;;;;10.90;7.97;;;;;;;19.60;39.55;101934.19;5033075;28;20080;-57
2024/01/25 01:44:20;;;;;;;10.77;8.75;;;;;;;19.61;39.56;101941.34;5035427;28;20049;-56
2024/01/25 01:46:48;;;;;;;10.40;8.27;;;;;;;19.60;39.44;101947.63;5032640;28;20046;-57
2024/01/25 01:49:16;;;;;;;9.63;7.88;;;;;;;19.59;39.67;101945.91;5034219;28;20076;-59
2024/01/25 01:51:45;;;;;;;8.90;8.00;;;;;;;19.59;39.54;101945.91;5031430;28;20522;-59
2024/01/25 01:54:12;;;;;;;11.15;8.43;;;;;;;19.59;39.51;101940.53;5035278;28;20049;-59
2024/01/25 01:56:40;;;;;;;10.27;8.25;;;;;;;19.59;39.49;101942.38;5032893;28;20427;-59
2024/01/25 01:59:11;;;;;;;10.15;8.10;;;;;;;19.57;39.36;101947.84;5033355;28;20041;-57
2024/01/25 02:01:39;;;;;;;10.30;7.63;;;;;;;19.57;39.31;101942.47;5034903;28;20057;-57
2024/01/25 02:04:07;;;;;;;8.70;7.38;;;;;;;19.56;39.48;101943.41;5032225;28;20045;-56
2024/01/25 02:06:35;;;;;;;9.07;7.60;;;;;;;19.55;39.40;101939.03;5034819;28;20045;-56
2024/01/25 02:09:03;;;;;;;9.43;8.18;;;;;;;19.56;39.41;101943.41;5032162;28;20052;-59
2024/01/25 02:11:30;;;;;;;8.77;7.88;;;;;;;19.56;39.62;101942.56;5031919;28;20094;-59
2024/01/25 02:13:57;;;;;;;8.43;7.53;;;;;;;19.54;39.63;101942.69;5035012;28;20041;-59
2024/01/25 02:16:25;;;;;;;8.73;7.45;;;;;;;19.54;39.46;101945.38;5031598;28;20053;-59
2024/01/25 02:18:54;;;;;;;10.48;8.20;;;;;;;19.54;39.37;101931.94;5034919;28;20052;-57
2024/01/25 02:21:21;;;;;;;10.20;8.23;;;;;;;19.54;39.55;101918.50;5021541;28;20053;-57
2024/01/25 02:23:50;;;;;;;9.80;8.20;;;;;;;19.52;39.43;101929.34;5026485;28;20068;-56
2024/01/25 02:26:17;;;;;;;9.48;7.32;;;;;;;19.53;39.56;101930.22;5014825;28;20038;-57
2024/01/25 02:28:45;;;;;;;8.05;7.10;;;;;;;19.52;39.55;101915.91;5030160;28;20080;-59
2024/01/25 02:31:12;;;;;;;10.07;7.50;;;;;;;19.52;39.57;101918.59;5030674;28;20049;-59
2024/01/25 02:33:40;;;;;;;9.20;7.93;;;;;;;19.53;39.54;101914.13;5031954;28;20049;-59
2024/01/25 02:36:07;;;;;;;11.40;8.73;;;;;;;19.50;39.57;101915.19;5031315;28;20056;-59
2024/01/25 02:38:35;;;;;;;10.07;7.68;;;;;;;19.49;39.56;101926.91;5029272;28;20044;-55
2024/01/25 02:41:03;;;;;;;8.70;7.45;;;;;;;19.49;39.45;101916.16;5031147;28;20060;-56
2024/01/25 02:43:30;;;;;;;8.10;7.07;;;;;;;19.48;39.37;101905.50;5031392;28;20052;-57
2024/01/25 02:45:57;;;;;;;10.27;8.27;;;;;;;19.48;39.39;101892.94;5031108;28;20053;-56
2024/01/25 02:48:25;;;;;;;9.15;8.20;;;;;;;19.46;39.44;101902.94;5028754;28;20053;-59
2024/01/25 02:50:52;;;;;;;10.02;7.97;;;;;;;19.47;39.49;101901.09;5017696;28;20053;-59
2024/01/25 02:53:20;;;;;;;10.85;8.18;;;;;;;19.46;39.40;101894.00;5017827;28;20045;-59
2024/01/25 02:55:47;;;;;;;10.20;7.32;;;;;;;19.46;39.47;101889.50;5026512;28;20064;-59
2024/01/25 02:58:14;;;;;;;8.35;7.55;;;;;;;19.45;39.35;101887.78;5028234;28;20053;-57
2024/01/25 03:00:42;;;;;;;9.27;7.88;;;;;;;19.44;39.32;101880.69;5030839;28;20068;-56
2024/01/25 03:03:09;;;;;;;8.32;7.50;;;;;;;19.44;39.19;101896.78;5029632;28;20491;-56
2024/01/25 03:05:37;;;;;;;9.93;7.63;;;;;;;19.44;39.37;101901.31;5030297;28;20053;-56
2024/01/25 03:08:04;;;;;;;10.55;8.50;;;;;;;19.42;39.30;101885.31;5028547;28;20060;-56
2024/01/25 03:10:32;;;;;;;8.82;7.75;;;;;;;19.42;39.21;101888.00;5030320;28;20499;-56
2024/01/25 03:12:59;;;;;;;8.55;7.70;;;;;;;19.42;39.18;101879.09;5031436;28;20491;-55
2024/01/25 03:15:26;;;;;;;10.15;8.55;;;;;;;19.42;39.14;101897.88;5030637;28;20045;-56
2024/01/25 03:17:54;;;;;;;11.05;8.25;;;;;;;19.41;39.18;101883.59;5026465;28;20076;-56
2024/01/25 03:20:21;;;;;;;9.18;7.47;;;;;;;19.41;39.17;101878.22;5027151;28;20129;-57
2024/01/25 03:22:49;;;;;;;9.02;7.85;;;;;;;19.41;39.15;101878.22;5021274;28;20053;-56
2024/01/25 03:25:16;;;;;;;9.00;7.28;;;;;;;19.40;39.19;101879.16;5022302;28;20050;-56
2024/01/25 03:27:43;;;;;;;9.27;8.25;;;;;;;19.40;39.10;101867.56;5013792;28;20042;-58
2024/01/25 03:30:11;;;;;;;10.55;8.07;;;;;;;19.40;39.00;101878.31;5029258;28;20388;-59
2024/01/25 03:32:39;;;;;;;9.30;8.18;;;;;;;19.40;39.12;101889.06;5030266;28;20052;-59
2024/01/25 03:35:06;;;;;;;8.90;8.02;;;;;;;19.40;39.16;101891.75;5029769;28;20072;-59
2024/01/25 03:37:34;;;;;;;8.30;7.45;;;;;;;19.41;39.09;101896.16;5016316;28;20057;-59
2024/01/25 03:40:01;;;;;;;8.70;7.82;;;;;;;19.39;39.13;101888.19;5032982;28;20045;-59
2024/01/25 03:42:29;;;;;;;8.88;7.97;;;;;;;19.40;39.01;101894.44;5030032;28;20045;-59
2024/01/25 03:44:56;;;;;;;9.10;8.10;;;;;;;19.40;38.78;101883.69;5029679;28;20057;-59
2024/01/25 03:47:23;;;;;;;9.10;7.93;;;;;;;19.39;38.85;101882.81;5027674;28;20054;-58
2024/01/25 03:49:51;;;;;;;8.45;7.55;;;;;;;19.39;38.87;101893.56;5028815;28;20408;-59
2024/01/25 03:52:18;;;;;;;8.23;7.30;;;;;;;19.38;38.86;101897.22;5029567;28;20045;-57
2024/01/25 03:54:46;;;;;;;9.43;7.00;;;;;;;19.38;38.91;101901.75;5029641;28;20053;-56
2024/01/25 03:57:13;;;;;;;12.02;8.77;;;;;;;19.35;39.02;101892.06;5027396;28;20049;-58
2024/01/25 03:59:41;;;;;;;8.55;7.43;;;;;;;19.37;38.90;101902.72;5028575;28;20404;-59
2024/01/25 04:02:09;;;;;;;9.50;7.45;;;;;;;19.35;38.83;101910.00;5029907;28;20522;-59
2024/01/25 04:04:36;;;;;;;9.18;8.18;;;;;;;19.36;38.76;101900.97;5029148;28;20108;-59
2024/01/25 04:07:04;;;;;;;11.15;8.60;;;;;;;19.34;38.84;101898.41;5029280;28;20045;-55
2024/01/25 04:09:31;;;;;;;10.07;8.05;;;;;;;19.34;38.93;101909.16;5032559;28;20048;-59
2024/01/25 04:11:59;;;;;;;9.25;7.85;;;;;;;19.34;39.03;101901.09;5029531;28;20392;-59
2024/01/25 04:14:27;;;;;;;8.85;7.63;;;;;;;19.35;39.02;101915.38;5029068;28;20052;-59
2024/01/25 04:16:54;;;;;;;9.02;7.50;;;;;;;19.34;38.91;101914.53;5026305;28;20045;-59
2024/01/25 04:19:21;;;;;;;8.52;7.72;;;;;;;19.33;38.93;101907.44;5028543;28;20052;-56
2024/01/25 04:21:49;;;;;;;9.15;7.40;;;;;;;19.35;39.04;101918.06;5029228;28;20056;-54
2024/01/25 04:24:16;;;;;;;8.88;7.25;;;;;;;19.34;38.85;101924.41;5029704;28;20053;-55
2024/01/25 04:26:44;;;;;;;8.93;7.57;;;;;;;19.33;38.89;101920.88;5013188;28;20045;-59
2024/01/25 04:29:11;;;;;;;9.40;7.95;;;;;;;19.34;38.93;101932.47;5015447;28;20061;-59
2024/01/25 04:31:45;;;;;;;9.27;7.72;;;;;;;19.34;38.78;101927.09;5028936;28;20062;-59
2024/01/25 04:34:13;;;;;;;8.68;7.82;;;;;;;19.33;38.76;101928.06;5028775;28;20061;-59
2024/01/25 04:36:41;;;;;;;9.65;8.10;;;;;;;19.31;38.69;101922.78;5024916;28;20049;-59
2024/01/25 04:39:08;;;;;;;10.45;8.27;;;;;;;19.31;38.66;101933.50;5028229;28;20048;-56
2024/01/25 04:41:36;;;;;;;9.57;8.48;;;;;;;19.32;38.68;101915.56;5023125;28;20068;-55
2024/01/25 04:44:04;;;;;;;9.35;8.05;;;;;;;19.31;38.78;101919.25;5028770;28;20061;-55
2024/01/25 04:46:36;;;;;;;8.23;7.43;;;;;;;19.30;38.77;101913.00;5024563;28;20046;-57
2024/01/25 04:49:04;;;;;;;9.07;7.43;;;;;;;19.30;38.71;101915.69;5019937;28;20052;-59
2024/01/25 04:51:31;;;;;;;10.18;7.85;;;;;;;19.30;38.80;101910.31;5032361;28;20049;-59
2024/01/25 04:53:59;;;;;;;10.70;8.38;;;;;;;19.30;38.70;101906.78;5028466;28;20064;-59
2024/01/25 04:56:26;;;;;;;8.80;7.90;;;;;;;19.29;38.74;101915.81;5027823;28;20061;-59
2024/01/25 04:58:53;;;;;;;8.70;7.47;;;;;;;19.30;38.75;101909.47;5024599;28;20050;-59
2024/01/25 05:01:21;;;;;;;8.38;7.38;;;;;;;19.29;38.75;101913.97;5023644;28;20076;-59
2024/01/25 05:03:48;;;;;;;10.02;7.32;;;;;;;19.29;38.68;101913.97;5028445;28;20050;-59
2024/01/25 05:06:16;;;;;;;10.07;7.63;;;;;;;19.30;38.78;101920.22;5024911;28;20046;-59
2024/01/25 05:08:43;;;;;;;10.43;7.93;;;;;;;19.28;38.87;101909.56;5028826;28;20064;-59
2024/01/25 05:11:11;;;;;;;10.60;8.32;;;;;;;19.29;38.68;101911.31;5028602;28;20054;-59
2024/01/25 05:13:38;;;;;;;9.65;8.23;;;;;;;19.29;38.66;101918.50;5027911;28;20049;-59
2024/01/25 05:16:06;;;;;;;11.50;8.23;;;;;;;19.28;38.75;101920.28;5025267;28;20050;-59
2024/01/25 05:18:33;;;;;;;9.35;8.13;;;;;;;19.29;38.70;101918.50;5026316;28;20408;-55
2024/01/25 05:21:01;;;;;;;9.38;7.57;;;;;;;19.27;38.61;101926.63;5024586;28;20038;-56
2024/01/25 05:23:28;;;;;;;8.50;7.38;;;;;;;19.28;38.66;101914.94;5028199;28;20049;-56
2024/01/25 05:25:56;;;;;;;10.30;7.63;;;;;;;19.26;38.63;101915.03;5024497;28;20042;-57
2024/01/25 05:28:24;;;;;;;7.13;6.43;;;;;;;19.27;38.70;101922.13;5011096;28;20540;-59
2024/01/25 05:30:51;;;;;;;8.82;7.93;;;;;;;19.25;38.83;101924.06;5024632;28;20069;-59
2024/01/25 05:33:19;;;;;;;8.48;7.38;;;;;;;19.26;38.82;101923.09;5027644;28;20044;-59
2024/01/25 05:35:46;;;;;;;8.68;7.60;;;;;;;19.25;38.70;101926.75;5013423;28;20058;-59
2024/01/25 05:38:14;;;;;;;9.10;7.82;;;;;;;19.25;38.68;101925.91;5020465;28;20049;-59
2024/01/25 05:40:41;;;;;;;8.30;7.45;;;;;;;19.25;38.69;101924.06;5019650;28;20519;-59
2024/01/25 05:43:08;;;;;;;8.55;7.32;;;;;;;19.26;38.75;101920.41;5028101;28;20053;-59
2024/01/25 05:45:36;;;;;;;8.45;7.10;;;;;;;19.24;38.61;101917.00;5023899;28;20052;-59
2024/01/25 05:48:04;;;;;;;8.95;7.40;;;;;;;19.24;38.65;101925.03;5026474;28;20492;-56
2024/01/25 05:50:31;;;;;;;10.13;8.02;;;;;;;19.24;38.50;101921.47;5027540;28;20045;-55
2024/01/25 05:52:58;;;;;;;7.63;6.85;;;;;;;19.24;38.53;101929.53;5032167;28;20049;-56
2024/01/25 05:55:26;;;;;;;9.30;7.53;;;;;;;19.22;38.70;101921.59;5016597;28;20393;-56
2024/01/25 05:57:53;;;;;;;8.35;6.93;;;;;;;19.24;38.79;101935.78;5027784;28;20068;-56
2024/01/25 06:00:21;;;;;;;7.97;7.18;;;;;;;19.23;38.73;101935.88;5027526;28;20037;-55
2024/01/25 06:02:48;;;;;;;9.18;7.15;;;;;;;19.23;38.72;101938.56;5027738;28;20045;-55
2024/01/25 06:05:17;;;;;;;8.23;7.22;;;;;;;19.22;38.71;101934.16;5031429;28;20049;-56
2024/01/25 06:07:44;;;;;;;9.23;7.22;;;;;;;19.22;38.71;101936.84;5022199;28;20523;-54
2024/01/25 06:10:12;;;;;;;10.52;7.47;;;;;;;19.21;38.56;101927.06;5031126;28;20049;-55
2024/01/25 06:12:40;;;;;;;7.88;7.07;;;;;;;19.22;38.43;101932.31;5035412;28;20420;-55
2024/01/25 06:15:08;;;;;;;8.73;7.72;;;;;;;19.22;38.38;101934.16;5030405;28;20412;-58
2024/01/25 06:17:35;;;;;;;9.73;7.30;;;;;;;19.21;38.36;101940.50;5019791;28;20053;-53
2024/01/25 06:20:04;;;;;;;8.45;7.65;;;;;;;19.21;38.44;101930.63;5032154;28;20051;-56
2024/01/25 06:22:32;;;;;;;7.07;6.38;;;;;;;19.21;38.53;101933.28;5030639;28;20522;-54
2024/01/25 06:24:59;;;;;;;8.80;7.63;;;;;;;19.21;38.36;101932.44;5029268;28;20061;-54
2024/01/25 06:27:27;;;;;;;8.50;7.45;;;;;;;19.20;38.23;101942.31;5014889;28;20485;-58
2024/01/25 06:29:54;;;;;;;8.85;7.20;;;;;;;19.21;38.12;101948.56;5015764;28;20508;-58
2024/01/25 06:32:21;;;;;;;7.88;6.72;;;;;;;19.20;38.27;101946.81;5019666;28;20064;-58
2024/01/25 06:34:53;;;;;;;8.70;7.75;;;;;;;19.20;38.26;101954.84;5019413;28;20508;-58
2024/01/25 06:37:21;;;;;;;7.93;7.13;;;;;;;19.20;38.16;101961.13;5018257;28;20058;-56
2024/01/25 06:39:48;;;;;;;8.10;7.22;;;;;;;19.19;38.13;101947.78;5028098;28;20049;-55
2024/01/25 06:42:16;;;;;;;8.45;7.57;;;;;;;19.19;38.23;101956.69;5027707;28;20049;-56
2024/01/25 06:44:44;;;;;;;7.03;6.32;;;;;;;19.19;38.17;101962.06;5014768;28;20360;-56
2024/01/25 06:47:12;;;;;;;7.80;6.97;;;;;;;19.20;38.32;101954.84;5019650;28;20050;-58
2024/01/25 06:49:39;;;;;;;8.68;7.38;;;;;;;19.19;38.22;101959.38;5027787;28;20057;-58
2024/01/25 06:52:06;;;;;;;8.30;7.43;;;;;;;19.19;38.04;101950.47;5028935;28;20057;-58
2024/01/25 06:54:34;;;;;;;7.95;6.95;;;;;;;19.18;38.12;101946.91;5026411;28;20053;-59
2024/01/25 06:57:02;;;;;;;8.38;7.18;;;;;;;19.20;38.05;101941.44;5024104;28;20056;-57
2024/01/25 06:59:30;;;;;;;12.02;7.93;;;;;;;19.18;38.29;101952.28;5029855;28;20045;-58
2024/01/25 07:01:58;;;;;;;10.10;7.30;;;;;;;19.17;38.31;101950.56;5028855;28;20542;-58
2024/01/25 07:04:25;;;;;;;9.48;7.35;;;;;;;19.17;38.36;101934.47;5031528;28;20734;-58
2024/01/25 07:06:53;;;;;;;9.88;7.90;;;;;;;19.18;38.42;101932.66;5029528;28;20052;-58
2024/01/25 07:09:21;;;;;;;9.00;8.10;;;;;;;19.17;38.34;101936.31;5029938;28;20044;-56
2024/01/25 07:11:48;;;;;;;8.50;7.50;;;;;;;19.18;38.29;101930.81;5030939;28;20041;-55
2024/01/25 07:14:16;;;;;;;9.20;7.47;;;;;;;19.18;38.47;101932.66;5030165;28;20041;-55
2024/01/25 07:16:43;;;;;;;7.90;6.57;;;;;;;19.20;38.42;101946.81;5019570;28;20049;-55
2024/01/25 07:19:10;;;;;;;9.23;7.22;;;;;;;19.20;38.76;101955.75;5033381;28;20057;-56
2024/01/25 07:21:40;;;;;;;7.82;7.03;;;;;;;19.20;38.41;101945.00;5029605;28;20056;-56
2024/01/25 07:24:07;;;;;;;8.38;7.22;;;;;;;19.20;38.40;101934.28;5028932;28;20050;-56
2024/01/25 07:26:36;;;;;;;8.85;7.22;;;;;;;19.20;38.53;101936.97;5032849;28;20397;-55
2024/01/25 07:29:04;;;;;;;10.82;7.85;;;;;;;19.20;38.69;101934.28;5019056;28;20046;-55
2024/01/25 07:31:31;;;;;;;8.52;6.82;;;;;;;19.20;38.83;101936.97;5014240;28;20038;-56
2024/01/25 07:33:59;;;;;;;8.75;6.82;;;;;;;19.21;38.43;101944.03;5026101;28;20050;-56
2024/01/25 07:36:26;;;;;;;10.63;7.60;;;;;;;19.23;38.23;101931.34;5028681;28;20048;-55
2024/01/25 07:38:54;;;;;;;9.85;8.32;;;;;;;19.20;38.03;101936.97;5029047;28;20423;-58
2024/01/25 07:41:21;;;;;;;8.27;6.82;;;;;;;19.21;38.23;101935.97;5030332;28;20488;-59
2024/01/25 07:43:49;;;;;;;9.70;7.05;;;;;;;19.22;38.53;101961.84;5025614;28;20054;-59
2024/01/25 07:46:16;;;;;;;10.45;8.20;;;;;;;19.21;38.59;101959.28;5028579;28;20045;-59
2024/01/25 07:48:43;;;;;;;9.52;7.50;;;;;;;19.20;38.62;101950.38;5028429;28;20041;-58
2024/01/25 07:51:13;;;;;;;9.77;7.57;;;;;;;19.19;38.59;101956.69;5026097;28;20408;-56
2024/01/25 07:53:41;;;;;;;10.02;7.50;;;;;;;19.19;38.67;101956.69;5026178;28;20045;-55
2024/01/25 07:56:09;;;;;;;10.25;7.40;;;;;;;19.17;38.68;101949.72;5021808;28;20050;-56
2024/01/25 07:58:37;;;;;;;10.13;7.57;;;;;;;19.16;38.68;101954.22;5028028;28;20772;-56
2024/01/25 08:01:07;;;;;;;8.55;7.50;;;;;;;19.17;38.66;101955.09;5026166;28;20041;-55
2024/01/25 08:03:35;;;;;;;8.63;7.75;;;;;;;19.15;38.63;101963.22;5026456;28;20050;-54
2024/01/25 08:06:03;;;;;;;7.70;6.90;;;;;;;19.20;38.77;101969.16;5027665;28;20053;-57
2024/01/25 08:08:30;;;;;;;8.18;6.70;;;;;;;19.21;38.75;101967.34;5018622;28;20049;-57
2024/01/25 08:10:58;;;;;;;8.77;7.50;;;;;;;19.21;38.80;101973.56;5022736;28;20512;-57
2024/01/25 08:13:28;;;;;;;8.43;6.95;;;;;;;19.23;38.88;101978.81;5026170;28;20077;-56
2024/01/25 08:15:56;;;;;;;11.68;7.57;;;;;;;19.25;39.08;101982.28;5027887;28;20045;-57
2024/01/25 08:18:24;;;;;;;8.20;7.10;;;;;;;19.24;39.04;101975.16;5028546;28;20480;-59
2024/01/25 08:20:51;;;;;;;9.80;7.55;;;;;;;19.25;39.16;101975.09;5024348;28;20102;-59
2024/01/25 08:23:19;;;;;;;9.45;7.28;;;;;;;19.26;39.27;101974.09;5026363;28;20077;-59
2024/01/25 08:25:46;;;;;;;8.25;7.30;;;;;;;19.29;39.17;101989.16;5027794;28;20132;-59
2024/01/25 08:28:14;;;;;;;8.52;6.70;;;;;;;19.29;39.20;101989.16;5027428;28;20476;-59
2024/01/25 08:30:41;;;;;;;8.30;6.90;;;;;;;19.31;39.28;101997.09;5011439;28;20050;-59
2024/01/25 08:33:09;;;;;;;8.63;6.82;;;;;;;19.31;39.22;102006.00;5018443;28;20046;-59
2024/01/25 08:35:36;;;;;;;10.35;6.75;;;;;;;19.33;39.35;102001.41;5027439;28;20053;-59
2024/01/25 08:38:04;;;;;;;8.43;6.82;;;;;;;19.35;39.38;102004.84;5032321;28;20451;-57
2024/01/25 08:40:31;;;;;;;9.15;6.85;;;;;;;19.36;39.30;102001.19;5016043;28;20125;-57
2024/01/25 08:42:59;;;;;;;10.63;7.82;;;;;;;19.37;39.38;102002.94;5026107;28;20060;-57
2024/01/25 08:45:26;;;;;;;9.25;7.18;;;;;;;19.40;39.11;102017.94;5032146;28;20372;-56
2024/01/25 08:47:55;;;;;;;8.60;7.75;;;;;;;19.42;39.30;102018.72;5027384;28;20041;-57
2024/01/25 08:50:23;;;;;;;10.48;8.57;;;;;;;19.42;38.92;102018.72;5028528;28;20046;-57
2024/01/25 08:52:54;;;;;;;10.15;8.82;;;;;;;19.40;38.22;102016.13;5031363;28;20045;-57
2024/01/25 08:55:21;;;;;;;10.15;8.75;;;;;;;19.41;38.26;102027.75;5026908;28;20506;-59
2024/01/25 08:57:49;;;;;;;9.60;8.48;;;;;;;19.39;38.36;102046.63;5031666;28;20049;-59
2024/01/25 09:00:18;;;;;;;9.93;7.88;;;;;;;19.37;38.13;102045.91;5022325;28;20057;-59
2024/01/25 09:02:45;;;;;;;11.55;10.23;;;;;;;19.39;37.74;102048.47;5030902;28;20049;-59
2024/01/25 09:05:13;;;;;;;13.07;11.07;;;;;;;19.36;37.01;102051.34;5026487;28;20045;-59
2024/01/25 09:07:41;;;;;;;12.15;10.30;;;;;;;19.35;36.88;102055.84;5031906;28;20061;-57
2024/01/25 09:10:09;;;;;;;11.23;10.10;;;;;;;19.32;36.83;102074.84;5016205;28;20388;-57
2024/01/25 09:12:39;;;;;;;13.80;11.25;;;;;;;19.32;36.63;102074.00;5020802;28;20480;-57
2024/01/25 09:15:08;;;;;;;11.65;10.45;;;;;;;19.30;36.51;102084.00;5026646;28;20049;-56
2024/01/25 09:17:36;;;;;;;12.38;10.70;;;;;;;19.30;36.59;102078.63;5031256;28;20052;-57
2024/01/25 09:20:04;;;;;;;14.15;11.75;;;;;;;19.28;36.45;102086.75;5023376;28;20053;-57
2024/01/25 09:22:32;;;;;;;12.82;11.52;;;;;;;19.25;36.50;102085.16;5016295;28;20042;-57
2024/01/25 09:25:00;;;;;;;11.38;10.20;;;;;;;19.25;36.73;102085.16;5027011;28;20041;-57
2024/01/25 09:27:27;;;;;;;10.70;9.48;;;;;;;19.27;37.13;102079.69;5025425;28;20050;-57
2024/01/25 09:29:55;;;;;;;9.23;8.32;;;;;;;19.29;37.67;102095.69;5022618;28;20050;-57
2024/01/25 09:32:22;;;;;;;11.13;9.40;;;;;;;19.31;37.65;102099.13;5011217;28;20053;-57
2024/01/25 09:34:49;;;;;;;11.98;9.32;;;;;;;19.31;37.67;102091.06;5019648;28;20045;-57
2024/01/25 09:37:19;;;;;;;10.38;9.23;;;;;;;19.33;37.66;102099.91;5030471;28;20049;-57
2024/01/25 09:39:47;;;;;;;10.70;9.55;;;;;;;19.34;37.62;102099.78;5021963;28;20042;-57
2024/01/25 09:42:15;;;;;;;11.65;9.57;;;;;;;19.35;37.83;102103.34;5017599;28;20049;-57
2024/01/25 09:44:43;;;;;;;10.35;9.27;;;;;;;19.36;37.87;102097.00;5035502;28;20041;-57
2024/01/25 09:47:11;;;;;;;10.38;9.38;;;;;;;19.37;37.78;102121.09;5030583;28;20408;-56
2024/01/25 09:49:41;;;;;;;10.05;8.70;;;;;;;19.39;37.84;102118.28;5029874;28;20049;-58
2024/01/25 09:52:12;;;;;;;10.02;8.70;;;;;;;19.40;37.96;102115.50;5035432;28;20048;-58
2024/01/25 09:54:40;;;;;;;10.43;9.32;;;;;;;19.42;37.78;102129.69;5030232;28;20361;-58
2024/01/25 09:57:18;;;;;;;10.63;9.35;;;;;;;19.42;38.00;102118.94;5032668;28;20046;-57
2024/01/25 09:59:46;;;;;;;10.77;9.23;;;;;;;19.42;37.92;102128.84;5033893;28;20057;-58
2024/01/25 10:02:13;;;;;;;10.15;8.70;;;;;;;19.42;37.90;102123.47;5029209;28;20057;-57
2024/01/25 10:04:41;;;;;;;9.02;8.13;;;;;;;19.42;38.17;102116.25;5034360;28;20060;-57
2024/01/25 10:07:09;;;;;;;10.50;8.90;;;;;;;19.44;37.97;102116.16;5029805;28;20048;-58
2024/01/25 10:09:41;;;;;;;9.32;8.30;;;;;;;19.43;37.99;102119.81;5029820;28;20889;-58
2024/01/25 10:12:09;;;;;;;10.15;9.10;;;;;;;19.42;38.16;102118.94;5034859;28;20050;-58
2024/01/25 10:14:45;;;;;;;10.23;8.95;;;;;;;19.43;38.13;102106.38;5029565;28;20407;-58
2024/01/25 10:17:13;;;;;;;10.18;9.13;;;;;;;19.44;37.96;102097.34;5029020;28;20054;-57
2024/01/25 10:19:44;;;;;;;9.35;8.38;;;;;;;19.43;38.04;102099.19;5034438;28;20049;-58
2024/01/25 10:22:12;;;;;;;10.82;8.60;;;;;;;19.44;38.37;102098.22;5029451;28;20050;-58
2024/01/25 10:24:42;;;;;;;9.93;7.95;;;;;;;19.44;38.20;102100.03;5031419;28;20057;-58
2024/01/25 10:27:12;;;;;;;10.00;8.52;;;;;;;19.44;38.22;102110.78;5032323;28;20053;-57
2024/01/25 10:29:39;;;;;;;9.70;8.45;;;;;;;19.44;38.22;102100.03;5029286;28;20065;-58
2024/01/25 10:32:08;;;;;;;10.05;8.43;;;;;;;19.44;38.37;102094.66;5023851;28;20077;-58
2024/01/25 10:34:37;;;;;;;9.18;8.10;;;;;;;19.44;38.17;102097.34;5014200;28;20046;-58
2024/01/25 10:37:08;;;;;;;9.73;8.73;;;;;;;19.44;38.28;102089.28;5026620;28;20428;-58
2024/01/25 10:39:36;;;;;;;8.98;7.90;;;;;;;19.44;38.29;102078.56;5025602;28;20050;-58
2024/01/25 10:42:04;;;;;;;10.60;7.78;;;;;;;19.44;38.32;102082.09;5024686;28;20052;-59
2024/01/25 10:44:32;;;;;;;9.98;8.98;;;;;;;19.45;38.07;102091.03;5024679;28;20060;-58
2024/01/25 10:47:00;;;;;;;9.68;8.40;;;;;;;19.45;38.37;102089.22;5027232;28;20049;-58
2024/01/25 10:49:29;;;;;;;9.77;8.77;;;;;;;19.44;38.38;102082.09;5028174;28;20053;-57
2024/01/25 10:51:57;;;;;;;10.02;8.57;;;;;;;19.45;38.42;102085.66;5027464;28;20038;-57
2024/01/25 10:54:24;;;;;;;9.00;8.10;;;;;;;19.45;38.42;102073.09;5024482;28;20050;-57
2024/01/25 10:56:52;;;;;;;10.57;8.77;;;;;;;19.45;38.38;102064.19;5027210;28;20415;-57
2024/01/25 10:59:19;;;;;;;9.52;8.10;;;;;;;19.45;38.42;102054.28;5027972;28;20049;-58
2024/01/25 11:01:48;;;;;;;9.82;8.32;;;;;;;19.45;38.55;102048.94;5027373;28;20050;-58
2024/01/25 11:04:17;;;;;;;10.02;8.57;;;;;;;19.45;38.56;102050.75;5024787;28;20515;-58
2024/01/25 11:06:45;;;;;;;8.30;7.50;;;;;;;19.46;38.52;102052.47;5027673;28;20045;-58
2024/01/25 11:09:19;;;;;;;8.75;7.75;;;;;;;19.47;38.56;102054.19;5027780;28;20503;-58
2024/01/25 11:11:49;;;;;;;9.02;7.35;;;;;;;19.46;38.67;102058.69;5026522;28;20052;-58
2024/01/25 11:14:19;;;;;;;9.13;8.20;;;;;;;19.47;38.66;102059.56;5024855;28;20061;-58
2024/01/25 11:16:47;;;;;;;9.13;8.23;;;;;;;19.46;38.64;102061.38;5028256;28;20049;-58
2024/01/25 11:19:21;;;;;;;9.65;7.80;;;;;;;19.47;38.58;102059.56;5028109;28;20049;-58
2024/01/25 11:21:51;;;;;;;10.88;8.23;;;;;;;19.47;38.63;102054.19;5019439;28;20044;-58
2024/01/25 11:24:23;;;;;;;9.15;7.60;;;;;;;19.46;38.90;102052.47;5027814;28;20058;-58